This is the latest recevied weather packets stored in our database for station/object HK6REC-20. If no packets are shown the sender has not sent any weather packets the latest 10 day(s).
| Time | Temp. | Humidity | Pressure | Rain* | Wind** | Luminosity | Snow |
|---|---|---|---|---|---|---|---|
| 1777842828 | 20° C | 91% | 1010 hPa | 0 mm | - | - | - |
| 1777841627 | 20° C | 91% | 1010 hPa | 0 mm | - | - | - |
| 1777840426 | 24.44° C | 67% | 1010 hPa | 0 mm | - | - | - |
| 1777839215 | 24.44° C | 67% | 1010 hPa | 0 mm | - | - | - |
| 1777838014 | 24.44° C | 67% | 1010 hPa | 0 mm | - | - | - |
| 1777836813 | 25° C | 67% | 1010 hPa | 0 mm | - | - | - |
| 1777835612 | 25° C | 67% | 1011 hPa | 0 mm | - | - | - |
| 1777834411 | 25° C | 67% | 1010 hPa | 0 mm | - | - | - |
| 1777833210 | 25° C | 67% | 1010 hPa | 0 mm | - | - | - |
| 1777832009 | 25° C | 67% | 1012 hPa | 0 mm | - | - | - |
| 1777830808 | 25° C | 67% | 1011 hPa | 0 mm | - | - | - |
| 1777829607 | 24.44° C | 68% | 1012 hPa | 0 mm | - | - | - |
| 1777828406 | 23.89° C | 71% | 1014 hPa | 0 mm | - | - | - |
| 1777827205 | 22.78° C | 77% | 1013 hPa | 0 mm | - | - | - |
| 1777826004 | 22.22° C | 80% | 1013 hPa | 0 mm | - | - | - |
| 1777824803 | 22.22° C | 81% | 1015 hPa | 0 mm | - | - | - |
| 1777823602 | 22.22° C | 81% | 1014 hPa | 0 mm | - | - | - |
| 1777822401 | 21.11° C | 86% | 1015 hPa | 0 mm | - | - | - |
| 1777821200 | 21.11° C | 86% | 1016 hPa | 0 mm | - | - | - |
| 1777819999 | 20° C | 94% | 1015 hPa | 0 mm | - | - | - |
| 1777818798 | 20° C | 94% | 1016 hPa | 0 mm | - | - | - |
| 1777817597 | 20° C | 94% | 1018 hPa | 0 mm | - | - | - |
| 1777816396 | 20° C | 94% | 1017 hPa | 0 mm | - | - | - |
| 1777815195 | 17.22° C | 95% | 1017 hPa | 0 mm | - | - | - |
| 1777813994 | 17.22° C | 95% | 1016 hPa | 0 mm | - | - | - |
* Rain latest hour (hover to see other rain measurements)
** Current wind speed in m/s (hover to see current wind gust speed)